Ottawa Gatineau Airport
CYND : now visible

Airfield :











YOU CAN JOIN US ON...

 
LOGIN :

Register | Disclaimer

   EN    FR    IT 

 









Legend :    VFR   Marginal VFR   IFR   Intensive IFR   Very Intensive IFR
Visi :
Ceiling :
>= 8 km
>= 3000ft
5 to 8 km
1000 to 3000 ft
1500m to 5 km
500 to 1000 ft
800 to 1500m
200 to 500 ft
< 800m
< 200 ft
Symbols :   Thunderstorms  Fog  Heavy snow  Heavy precipitations  Wind > 20 kt






- Airport Elevation : 211 ft
- IATA code : YND


CYND - Ottawa Gatineau

CURRENT METAR :
  • 280100Z 28006KT 12SM -SN BKN011 OVC025 M00/M02 A2973 RMK SC5SC3 SLP070

EXPIRED METARs :
  • 280000Z 28004KT 10SM -SN SCT013 OVC022 M00/M01 A2972 RMK SC3SC5 SLP067
  • 272341Z 28005KT 10SM -SN SCT014 OVC023 00/M01 A2971 RMK SC3SC5 SLP065
  • 272300Z 29004KT 260V330 15SM BKN022 BKN070 00/M02 A2970 RMK SC6AC1 SLP062

TAF TAF CYND
Valid from the 28 at 00:00 until the 28 at 02:00 UTC


272338Z 2800/2802 30006KT P6SM BKN015 OVC025
TEMPO 2800/2802 SCT015 OVC025 RMK NXT FCST WILL BE ISSUED AT 281345Z



MET'MAP, your aeronautical weather chart ! - Copyright ORBIFLY December 2007 - Disclaimer

ORBIFLY MET'MAP TEAM :

Programming & Development : Alexandra Zaïnal
Concept & original design : Baudouin d'Aumeries
Assistance for programming : Marc-Olivier Méhu
Technical & hardware support : Manuel Goepfert

Contact : metmap@orbifly.com




SOURCES & CREDITS :

   NOAA       Earth
Advisory